Time;durP1;ratioP1;P1;durP2;ratioP2;P2;SDS_P1;SDS_P2;PMS_P1;PMS_P2;Temp;Humidity;BMP_temperature;BMP_pressure;BME280_temperature;BME280_humidity;BME280_pressure;Samples;Min_cycle;Max_cycle;Signal;HPM_P1;HPM_P2
2022/01/13 00:01:50;;;;;;;13.65;6.53;;;0.50;69.30;;;;;;2355791;53;20916;-66
2022/01/13 00:04:17;;;;;;;14.48;6.30;;;0.50;69.30;;;;;;2363136;53;20917;-69
2022/01/13 00:06:43;;;;;;;13.23;6.18;;;0.40;69.20;;;;;;2370748;54;20997;-69
2022/01/13 00:09:09;;;;;;;9.75;5.22;;;0.40;69.20;;;;;;2499600;52;21504;-69
2022/01/13 00:11:35;;;;;;;10.55;5.80;;;0.40;69.20;;;;;;2439334;52;21687;-69
2022/01/13 00:18:39;;;;;;;11.05;5.57;;;0.40;69.20;;;;;;2371299;54;20889;-70
2022/01/13 00:21:15;;;;;;;12.05;5.28;;;0.30;69.00;;;;;;2359643;53;20974;-69
2022/01/13 00:23:51;;;;;;;12.88;5.80;;;0.30;69.00;;;;;;2361178;53;20913;-68
2022/01/13 00:26:22;;;;;;;13.95;6.15;;;0.30;69.10;;;;;;2371489;53;22301;-67
2022/01/13 00:28:51;;;;;;;14.23;6.07;;;0.30;69.20;;;;;;2354497;53;21075;-67
2022/01/13 00:31:23;;;;;;;12.60;5.93;;;0.30;69.20;;;;;;2600653;52;21354;-68
2022/01/13 00:33:54;;;;;;;11.57;5.57;;;0.30;69.40;;;;;;2349126;53;20917;-69
2022/01/13 00:36:21;;;;;;;10.57;5.03;;;0.30;69.40;;;;;;2381909;52;20948;-67
2022/01/13 00:38:48;;;;;;;13.32;6.15;;;0.30;69.50;;;;;;2532103;52;21279;-68
2022/01/13 00:41:14;;;;;;;13.20;5.68;;;0.30;69.50;;;;;;2370959;53;21363;-69
2022/01/13 00:43:46;;;;;;;10.98;5.45;;;0.30;69.50;;;;;;2369767;53;20905;-67
2022/01/13 00:46:20;;;;;;;11.90;5.47;;;0.30;69.50;;;;;;2371468;54;20993;-67
2022/01/13 00:48:47;;;;;;;12.88;5.55;;;0.20;69.40;;;;;;2371662;53;21450;-67
2022/01/13 00:51:16;;;;;;;11.75;5.12;;;0.30;69.60;;;;;;2364063;53;20960;-67
2022/01/13 00:53:43;;;;;;;11.35;5.35;;;0.30;69.60;;;;;;2352044;53;20948;-67
2022/01/13 00:56:10;;;;;;;12.05;5.97;;;0.30;69.50;;;;;;2413557;52;21354;-67
2022/01/13 00:58:36;;;;;;;12.85;6.07;;;0.20;69.40;;;;;;2371263;54;20905;-67
2022/01/13 01:01:04;;;;;;;13.70;6.50;;;0.20;69.40;;;;;;2349194;53;20917;-69
2022/01/13 01:03:31;;;;;;;12.43;6.10;;;0.20;69.40;;;;;;2369328;53;21001;-68
2022/01/13 01:05:57;;;;;;;11.93;5.35;;;0.20;69.30;;;;;;2371676;53;20897;-69
2022/01/13 01:08:24;;;;;;;15.35;7.12;;;0.20;69.20;;;;;;2347452;53;20984;-69
2022/01/13 01:10:52;;;;;;;14.18;7.03;;;0.20;69.10;;;;;;2370325;53;21790;-69
2022/01/13 01:13:22;;;;;;;12.23;5.82;;;0.20;69.30;;;;;;2371301;53;20906;-70
2022/01/13 01:15:52;;;;;;;12.25;5.87;;;0.10;69.20;;;;;;2348169;53;20957;-70
2022/01/13 01:27:07;;;;;;;11.82;6.47;;;0.10;69.30;;;;;;2355658;53;20973;-65
2022/01/13 01:29:42;;;;;;;12.52;6.07;;;0.10;69.40;;;;;;2349963;53;21001;-69
2022/01/13 01:32:15;;;;;;;11.38;5.68;;;0.10;69.50;;;;;;2623754;52;20973;-68
2022/01/13 01:35:00;;;;;;;13.90;6.03;;;0.10;70.20;;;;;;2544910;52;20905;-68
2022/01/13 01:37:27;;;;;;;12.85;5.80;;;0.10;69.50;;;;;;2371191;54;21465;-69
2022/01/13 01:39:54;;;;;;;14.90;6.35;;;0.10;69.40;;;;;;2373892;53;20917;-69
2022/01/13 01:42:21;;;;;;;13.60;5.90;;;0.10;69.40;;;;;;2370010;53;20988;-67
2022/01/13 01:44:49;;;;;;;11.88;6.07;;;0.10;69.40;;;;;;2414178;52;21461;-68
2022/01/13 01:47:16;;;;;;;13.05;5.97;;;0.00;69.20;;;;;;2363306;54;20949;-67
2022/01/13 01:49:43;;;;;;;10.63;5.72;;;0.10;69.30;;;;;;2347050;53;20997;-67
2022/01/13 01:52:11;;;;;;;10.35;5.20;;;0.10;69.30;;;;;;2347916;53;20973;-67
2022/01/13 01:54:38;;;;;;;13.60;6.40;;;0.00;69.10;;;;;;2428670;52;21013;-70
2022/01/13 01:57:07;;;;;;;12.35;5.70;;;0.00;69.20;;;;;;2514738;52;20920;-69
2022/01/13 01:59:36;;;;;;;12.57;6.62;;;0.00;69.20;;;;;;2371672;54;20929;-66
2022/01/13 02:02:03;;;;;;;16.20;7.35;;;0.00;69.20;;;;;;2352022;53;20910;-68
2022/01/13 02:04:30;;;;;;;12.93;6.18;;;0.00;69.30;;;;;;2373667;53;21772;-66
2022/01/13 02:06:59;;;;;;;15.85;7.60;;;0.00;69.50;;;;;;2373620;53;21743;-67
2022/01/13 02:09:25;;;;;;;15.05;7.03;;;0.00;69.40;;;;;;2377866;53;21480;-68
2022/01/13 02:11:55;;;;;;;14.82;7.28;;;0.00;69.50;;;;;;2349956;53;21831;-68
2022/01/13 02:17:11;;;;;;;14.68;7.43;;;0.00;69.60;;;;;;2592120;52;20890;-68
2022/01/13 02:19:39;;;;;;;13.85;7.05;;;0.00;69.50;;;;;;2367973;54;21056;-66
2022/01/13 02:22:05;;;;;;;14.48;7.20;;;0.00;69.40;;;;;;2371610;54;20910;-68
2022/01/13 02:24:33;;;;;;;15.68;7.72;;;0.00;69.30;;;;;;2364769;53;20961;-70
2022/01/13 02:26:59;;;;;;;16.85;8.00;;;0.00;69.30;;;;;;2342259;53;21528;-69
2022/01/13 02:29:26;;;;;;;14.05;7.12;;;-0.10;69.20;;;;;;2360290;53;20921;-69
2022/01/13 02:31:52;;;;;;;16.67;7.55;;;0.00;69.30;;;;;;2371155;53;20980;-68
2022/01/13 02:34:19;;;;;;;15.40;7.75;;;-0.10;69.20;;;;;;2371354;54;21358;-69
2022/01/13 02:36:46;;;;;;;15.07;7.68;;;-0.10;69.20;;;;;;2347820;54;20930;-67
2022/01/13 02:39:12;;;;;;;14.65;7.53;;;-0.10;69.20;;;;;;2377148;52;20970;-67
2022/01/13 02:41:38;;;;;;;14.10;6.90;;;-0.10;69.20;;;;;;2370422;53;20913;-67
2022/01/13 02:44:14;;;;;;;13.50;6.65;;;-0.10;69.10;;;;;;2371073;54;20981;-68
2022/01/13 02:52:16;;;;;;;11.57;5.75;;;-0.10;69.10;;;;;;2348037;54;21473;-68
2022/01/13 02:54:43;;;;;;;10.45;5.60;;;-0.10;68.90;;;;;;2427850;52;20925;-69
2022/01/13 02:57:09;;;;;;;13.48;6.40;;;-0.10;68.90;;;;;;2369960;53;20993;-69
2022/01/13 02:59:35;;;;;;;16.85;6.68;;;-0.20;68.90;;;;;;2371063;53;21020;-68
2022/01/13 03:02:01;;;;;;;12.55;6.62;;;-0.20;69.00;;;;;;2370861;53;20917;-69
2022/01/13 03:04:28;;;;;;;12.32;6.35;;;-0.20;69.00;;;;;;2371132;54;21382;-69
2022/01/13 03:06:54;;;;;;;13.93;6.32;;;-0.20;69.10;;;;;;2371462;53;21507;-68
2022/01/13 03:09:21;;;;;;;15.82;6.93;;;-0.20;69.10;;;;;;2371485;54;20981;-69
2022/01/13 03:11:48;;;;;;;14.10;7.20;;;-0.20;69.10;;;;;;2371564;53;21242;-70
2022/01/13 03:14:14;;;;;;;12.50;6.78;;;-0.20;69.10;;;;;;2371251;53;20953;-71
2022/01/13 03:16:41;;;;;;;13.62;6.75;;;-0.20;69.10;;;;;;2358024;52;20961;-69
2022/01/13 03:19:08;;;;;;;11.70;6.10;;;-0.20;69.20;;;;;;2367077;53;20906;-67
2022/01/13 03:21:34;;;;;;;13.30;6.85;;;-0.30;69.10;;;;;;2371086;53;21890;-69
2022/01/13 03:24:02;;;;;;;12.25;6.43;;;-0.30;69.10;;;;;;2348026;53;20948;-68
2022/01/13 03:26:29;;;;;;;12.82;6.60;;;-0.30;69.10;;;;;;2371529;53;21002;-67
2022/01/13 03:29:05;;;;;;;12.20;6.43;;;-0.30;69.00;;;;;;2370105;53;21725;-68
2022/01/13 03:31:31;;;;;;;13.10;6.65;;;-0.30;69.00;;;;;;2570356;52;21025;-69
2022/01/13 03:33:57;;;;;;;13.20;6.78;;;-0.30;69.00;;;;;;2342016;53;20971;-66
2022/01/13 03:36:24;;;;;;;13.05;6.47;;;-0.30;69.10;;;;;;2365055;53;20921;-69
2022/01/13 03:38:51;;;;;;;14.07;6.95;;;-0.30;69.20;;;;;;2371868;53;21422;-67
2022/01/13 03:41:18;;;;;;;13.43;6.32;;;-0.30;69.30;;;;;;2371483;54;21434;-69
2022/01/13 03:43:45;;;;;;;12.77;6.40;;;-0.30;69.40;;;;;;2371217;54;21449;-67
2022/01/13 03:46:11;;;;;;;12.65;6.57;;;-0.30;69.40;;;;;;2491966;52;21722;-66
2022/01/13 03:48:38;;;;;;;10.43;5.68;;;-0.30;69.40;;;;;;2376766;52;20906;-66
2022/01/13 03:51:05;;;;;;;13.30;6.00;;;-0.30;69.40;;;;;;2371716;53;20918;-67
2022/01/13 03:55:30;;;;;;;13.27;6.35;;;-0.30;69.30;;;;;;2470727;52;20898;-70
2022/01/13 04:01:25;;;;;;;12.25;6.55;;;-0.30;68.90;;;;;;2357399;54;21689;-66
2022/01/13 04:03:52;;;;;;;19.30;8.13;;;-0.30;68.70;;;;;;2362447;53;20995;-70
2022/01/13 04:06:41;;;;;;;15.45;7.25;;;-0.30;69.00;;;;;;2356334;53;20940;-68
2022/01/13 04:10:03;;;;;;;17.77;7.28;;;-0.30;69.00;;;;;;2366566;53;21037;-68
2022/01/13 04:12:32;;;;;;;12.77;6.60;;;-0.30;69.00;;;;;;2377599;52;20941;-69
2022/01/13 04:15:01;;;;;;;12.77;6.12;;;-0.40;68.90;;;;;;2371839;54;20901;-69
2022/01/13 04:17:27;;;;;;;11.93;6.70;;;-0.40;69.10;;;;;;2376758;52;20989;-69
2022/01/13 04:19:54;;;;;;;15.10;7.18;;;-0.40;69.80;;;;;;2445415;52;20949;-69
2022/01/13 04:22:20;;;;;;;14.30;7.45;;;-0.30;70.50;;;;;;2404082;52;20873;-68
2022/01/13 04:24:49;;;;;;;14.73;7.20;;;-0.30;71.00;;;;;;2624253;52;20989;-69
2022/01/13 04:27:31;;;;;;;14.25;6.37;;;-0.30;71.20;;;;;;2365340;53;21270;-67
2022/01/13 04:39:14;;;;;;;16.65;7.82;;;-0.20;70.70;;;;;;2370522;53;20065;-66
2022/01/13 04:41:43;;;;;;;15.57;7.03;;;-0.20;70.30;;;;;;2371071;54;20929;-67
2022/01/13 04:44:13;;;;;;;16.15;7.07;;;-0.20;70.30;;;;;;2371131;54;20925;-66
2022/01/13 04:46:39;;;;;;;16.25;8.05;;;-0.20;70.10;;;;;;2371336;53;21775;-68
2022/01/13 04:49:05;;;;;;;15.32;7.43;;;-0.20;70.00;;;;;;2371525;53;20957;-67
2022/01/13 04:51:32;;;;;;;15.93;8.13;;;-0.30;69.80;;;;;;2371193;53;20918;-68
2022/01/13 04:53:58;;;;;;;13.95;7.28;;;-0.30;69.60;;;;;;2336977;53;20968;-67
2022/01/13 04:59:09;;;;;;;15.80;6.93;;;-0.30;70.00;;;;;;2340527;53;21336;-68
2022/01/13 05:01:37;;;;;;;14.50;7.30;;;-0.40;69.10;;;;;;2355180;53;20929;-67
2022/01/13 05:04:04;;;;;;;11.35;6.25;;;-0.40;69.60;;;;;;2338719;53;20924;-69
2022/01/13 05:06:30;;;;;;;13.77;6.45;;;-0.40;68.90;;;;;;2477821;53;21437;-67
2022/01/13 05:08:57;;;;;;;12.32;6.22;;;-0.40;68.90;;;;;;2370706;54;20936;-66
2022/01/13 05:11:24;;;;;;;13.32;6.65;;;-0.40;68.90;;;;;;2362606;53;21005;-68
2022/01/13 05:13:53;;;;;;;12.18;6.20;;;-0.40;68.90;;;;;;2354124;53;21964;-68
2022/01/13 05:16:27;;;;;;;12.02;5.62;;;-0.50;68.60;;;;;;2370745;53;20977;-66
2022/01/13 05:19:08;;;;;;;11.48;5.78;;;-0.40;68.70;;;;;;2347383;53;20952;-68
2022/01/13 05:21:54;;;;;;;15.00;5.80;;;-0.50;68.40;;;;;;2349417;53;1509140;-67
2022/01/13 05:24:21;;;;;;;13.68;6.00;;;-0.50;68.40;;;;;;2370936;54;21421;-68
2022/01/13 05:26:47;;;;;;;14.80;6.18;;;-0.50;68.30;;;;;;2371670;53;21359;-69
2022/01/13 05:29:19;;;;;;;11.50;5.60;;;-0.50;68.30;;;;;;2371327;53;20970;-69
2022/01/13 05:31:46;;;;;;;11.77;5.82;;;-0.50;68.30;;;;;;2447085;52;20996;-69
2022/01/13 05:34:15;;;;;;;14.15;6.45;;;-0.60;68.20;;;;;;2461469;52;20929;-67
2022/01/13 05:36:53;;;;;;;13.15;5.80;;;-0.50;68.30;;;;;;2370094;54;21001;-66
2022/01/13 05:39:19;;;;;;;13.40;6.07;;;-0.60;68.10;;;;;;2371424;54;21413;-66
2022/01/13 05:41:48;;;;;;;10.23;5.40;;;-0.60;68.10;;;;;;2369747;53;20952;-71
2022/01/13 05:44:14;;;;;;;11.98;5.50;;;-0.60;68.10;;;;;;2370837;54;20945;-68
2022/01/13 05:46:40;;;;;;;14.30;6.22;;;-0.60;68.00;;;;;;2412693;52;20917;-70
2022/01/13 05:49:10;;;;;;;13.98;6.53;;;-0.60;68.00;;;;;;2347086;53;20917;-70
2022/01/13 05:51:39;;;;;;;11.98;5.93;;;-0.60;67.90;;;;;;2371161;53;20998;-66
2022/01/13 05:54:05;;;;;;;14.20;6.12;;;-0.60;67.90;;;;;;2348837;53;21571;-67
2022/01/13 05:56:33;;;;;;;13.75;6.62;;;-0.60;67.80;;;;;;2489349;52;21036;-68
2022/01/13 05:58:59;;;;;;;12.57;6.22;;;-0.60;67.80;;;;;;2496369;52;21456;-68
2022/01/13 06:01:26;;;;;;;13.77;7.10;;;-0.60;67.80;;;;;;2370814;54;20901;-68
2022/01/13 06:03:53;;;;;;;16.45;7.00;;;-0.70;67.70;;;;;;2370420;54;21072;-68
2022/01/13 06:06:19;;;;;;;14.20;7.22;;;-0.70;67.80;;;;;;2370424;53;20909;-67
2022/01/13 06:08:45;;;;;;;16.65;7.28;;;-0.70;67.90;;;;;;2370906;54;20925;-67
2022/01/13 06:11:11;;;;;;;21.12;8.57;;;-0.60;68.00;;;;;;2373603;53;20897;-66
2022/01/13 06:13:39;;;;;;;16.85;7.47;;;-0.70;67.80;;;;;;2343116;53;21362;-68
2022/01/13 06:16:05;;;;;;;14.48;6.93;;;-0.70;67.80;;;;;;2361728;53;20929;-69
2022/01/13 06:18:31;;;;;;;18.48;8.77;;;-0.70;67.80;;;;;;2429441;53;20969;-67
2022/01/13 06:20:57;;;;;;;16.23;7.50;;;-0.70;67.80;;;;;;2350770;53;20996;-66
2022/01/13 06:23:25;;;;;;;20.80;9.63;;;-0.70;67.80;;;;;;2368866;54;20905;-67
2022/01/13 06:25:52;;;;;;;13.45;7.32;;;-0.70;67.90;;;;;;2372528;53;20977;-67
2022/01/13 06:28:22;;;;;;;14.90;7.55;;;-0.70;67.90;;;;;;2347791;53;21353;-69
2022/01/13 06:30:48;;;;;;;15.57;7.78;;;-0.70;67.80;;;;;;2372638;53;20924;-68
2022/01/13 06:33:15;;;;;;;16.95;8.63;;;-0.70;67.80;;;;;;2342017;53;20941;-69
2022/01/13 06:35:41;;;;;;;12.13;6.95;;;-0.70;67.80;;;;;;2357526;53;21415;-69
2022/01/13 06:38:08;;;;;;;16.65;8.07;;;-0.70;67.90;;;;;;2372113;53;20929;-70
2022/01/13 06:40:37;;;;;;;13.98;7.03;;;-0.70;68.00;;;;;;2383669;52;20925;-68
2022/01/13 06:43:06;;;;;;;18.98;7.87;;;-0.70;67.90;;;;;;2371795;54;20874;-68
2022/01/13 06:45:32;;;;;;;17.90;9.00;;;-0.70;67.80;;;;;;2370870;53;21028;-66
2022/01/13 06:47:58;;;;;;;20.37;8.68;;;-0.70;67.70;;;;;;2369426;52;20932;-69
2022/01/13 06:50:25;;;;;;;16.02;7.75;;;-0.70;67.60;;;;;;2341962;53;21939;-68
2022/01/13 06:52:51;;;;;;;19.15;8.52;;;-0.70;68.30;;;;;;2348434;53;20954;-68
2022/01/13 06:55:18;;;;;;;16.90;8.27;;;-0.70;67.60;;;;;;2367078;53;20956;-68
2022/01/13 06:57:46;;;;;;;19.08;9.32;;;-0.80;67.50;;;;;;2369330;54;20976;-68
2022/01/13 07:00:13;;;;;;;22.70;10.45;;;-0.80;67.70;;;;;;2370423;53;20936;-69
2022/01/13 07:02:39;;;;;;;23.27;10.13;;;-0.80;67.70;;;;;;2370885;53;20945;-66
2022/01/13 07:05:10;;;;;;;24.67;10.10;;;-0.70;67.90;;;;;;2371244;54;20980;-68
2022/01/13 07:07:39;;;;;;;25.80;10.93;;;-0.70;67.80;;;;;;2371300;54;21442;-67
2022/01/13 07:10:06;;;;;;;29.25;11.38;;;-0.70;67.80;;;;;;2371107;54;21411;-68
2022/01/13 07:12:33;;;;;;;28.00;12.02;;;-0.70;67.80;;;;;;2371210;53;22618;-67
2022/01/13 07:14:59;;;;;;;25.85;11.02;;;-0.80;67.60;;;;;;2371619;54;20933;-68
2022/01/13 07:17:25;;;;;;;27.13;12.05;;;-0.80;67.60;;;;;;2370188;53;21041;-66
2022/01/13 07:19:52;;;;;;;28.87;12.45;;;-0.80;67.50;;;;;;2370702;53;21469;-66
2022/01/13 07:22:18;;;;;;;26.75;11.77;;;-0.70;67.60;;;;;;2623723;52;20989;-66
2022/01/13 07:24:45;;;;;;;25.85;12.02;;;-0.80;67.50;;;;;;2371091;54;20914;-68
2022/01/13 07:27:11;;;;;;;30.02;13.30;;;-0.80;67.40;;;;;;2371841;54;21729;-69
2022/01/13 07:29:39;;;;;;;32.30;14.40;;;-0.80;67.40;;;;;;2348587;53;20985;-67
2022/01/13 07:32:06;;;;;;;30.48;14.45;;;-0.80;67.40;;;;;;2369364;54;20968;-66
2022/01/13 07:34:38;;;;;;;29.90;14.27;;;-0.80;67.50;;;;;;2370935;53;20913;-67
2022/01/13 07:37:05;;;;;;;30.70;13.35;;;-0.80;67.50;;;;;;2372151;53;20926;-69
2022/01/13 07:39:31;;;;;;;33.95;16.70;;;-0.80;67.50;;;;;;2371281;54;21627;-69
2022/01/13 07:41:58;;;;;;;32.85;14.65;;;-0.80;67.60;;;;;;2371029;53;21031;-68
2022/01/13 07:44:26;;;;;;;31.33;15.50;;;-0.80;67.60;;;;;;2396836;52;20945;-67
2022/01/13 07:46:53;;;;;;;32.67;14.25;;;-0.80;67.60;;;;;;2371851;54;20988;-67
2022/01/13 07:49:19;;;;;;;27.90;11.52;;;-0.70;67.70;;;;;;2407986;52;21008;-67
2022/01/13 07:51:45;;;;;;;30.20;13.98;;;-0.70;67.70;;;;;;2370293;53;21277;-68
2022/01/13 07:54:12;;;;;;;30.08;13.95;;;-0.70;67.80;;;;;;2364425;53;20913;-66
2022/01/13 07:56:38;;;;;;;34.47;13.77;;;-0.70;67.80;;;;;;2356773;53;21001;-69
2022/01/13 07:59:04;;;;;;;31.52;14.32;;;-0.70;67.80;;;;;;2371535;53;21406;-66
2022/01/13 08:01:31;;;;;;;38.63;16.55;;;-0.70;67.90;;;;;;2371153;54;20901;-69
2022/01/13 08:03:57;;;;;;;36.20;16.02;;;-0.70;68.00;;;;;;2371381;54;21000;-66
2022/01/13 08:06:23;;;;;;;34.60;16.80;;;-0.70;68.10;;;;;;2371605;53;20920;-68
2022/01/13 08:08:50;;;;;;;34.40;16.00;;;-0.70;68.20;;;;;;2371192;53;20941;-69
2022/01/13 08:11:16;;;;;;;36.60;17.12;;;-0.70;68.20;;;;;;2370790;54;21005;-66
2022/01/13 08:13:46;;;;;;;39.65;16.85;;;-0.70;68.30;;;;;;2386118;52;20957;-68
2022/01/13 08:16:17;;;;;;;34.00;16.25;;;-0.60;68.40;;;;;;2371515;53;21691;-69
2022/01/13 08:21:30;;;;;;;30.95;15.02;;;-0.60;68.40;;;;;;2447563;52;21010;-68
2022/01/13 08:23:56;;;;;;;36.28;16.35;;;-0.50;68.50;;;;;;2431059;52;20930;-66
2022/01/13 08:26:23;;;;;;;34.33;15.80;;;-0.50;68.60;;;;;;2430194;52;20925;-71
2022/01/13 08:28:49;;;;;;;32.58;16.17;;;-0.50;68.60;;;;;;2371183;54;20921;-67
2022/01/13 08:31:15;;;;;;;33.45;15.98;;;-0.50;68.60;;;;;;2370911;54;21339;-69
2022/01/13 08:33:42;;;;;;;35.75;17.37;;;-0.50;68.70;;;;;;2371379;54;20957;-68
2022/01/13 08:36:11;;;;;;;38.33;17.17;;;-0.40;68.90;;;;;;2370780;53;21149;-70
2022/01/13 08:38:37;;;;;;;34.22;17.02;;;-0.40;69.10;;;;;;2348528;53;20917;-67
2022/01/13 08:41:06;;;;;;;36.08;18.67;;;-0.40;69.20;;;;;;2478001;52;20921;-68
2022/01/13 08:43:34;;;;;;;36.00;17.77;;;-0.30;69.40;;;;;;2371209;54;20901;-68
2022/01/13 08:46:03;;;;;;;34.22;18.12;;;-0.30;69.50;;;;;;2419381;52;20930;-70
2022/01/13 08:48:30;;;;;;;38.25;19.70;;;-0.20;69.70;;;;;;2370687;53;21421;-69
2022/01/13 08:50:56;;;;;;;37.53;19.02;;;-0.20;69.80;;;;;;2370924;53;21343;-68
2022/01/13 08:53:23;;;;;;;35.17;18.52;;;-0.10;70.00;;;;;;2373741;53;20961;-67
2022/01/13 08:55:51;;;;;;;32.40;17.05;;;-0.10;70.10;;;;;;2366614;53;21055;-67
2022/01/13 08:58:19;;;;;;;42.38;19.98;;;0.00;70.30;;;;;;2371578;54;20910;-66
2022/01/13 09:00:48;;;;;;;58.97;25.67;;;0.00;70.50;;;;;;2373903;53;20993;-69
2022/01/13 09:03:15;;;;;;;58.70;25.83;;;0.10;70.70;;;;;;2370852;53;20981;-69
2022/01/13 09:05:42;;;;;;;51.45;25.98;;;0.10;70.70;;;;;;2370535;54;20905;-67
2022/01/13 09:08:09;;;;;;;48.97;24.60;;;0.20;70.90;;;;;;2367063;54;21044;-70
2022/01/13 09:10:37;;;;;;;47.62;24.00;;;0.30;71.10;;;;;;2371116;54;20996;-68
2022/01/13 09:13:04;;;;;;;41.90;23.05;;;0.30;71.10;;;;;;2370552;54;20964;-69
2022/01/13 09:15:36;;;;;;;42.88;21.58;;;0.40;71.20;;;;;;2396330;52;20914;-70
2022/01/13 09:18:09;;;;;;;36.78;20.55;;;0.50;71.40;;;;;;2444846;52;21458;-66
2022/01/13 09:20:37;;;;;;;37.22;20.25;;;0.50;71.40;;;;;;2621065;52;20909;-66
2022/01/13 09:23:03;;;;;;;39.53;20.25;;;0.60;71.60;;;;;;2369359;53;20989;-69
2022/01/13 09:25:29;;;;;;;33.15;17.80;;;0.60;71.70;;;;;;2371092;54;21383;-67
2022/01/13 09:28:08;;;;;;;27.65;15.20;;;0.70;71.90;;;;;;2367346;53;21085;-67
2022/01/13 09:30:34;;;;;;;23.15;14.75;;;0.80;72.00;;;;;;2353500;53;21477;-69
2022/01/13 09:33:01;;;;;;;27.75;15.63;;;0.80;72.00;;;;;;2421420;52;21076;-66
2022/01/13 09:35:27;;;;;;;30.95;15.32;;;0.90;72.20;;;;;;2377789;52;20965;-66
2022/01/13 09:37:53;;;;;;;24.65;14.25;;;1.00;72.30;;;;;;2369846;53;20969;-68
2022/01/13 09:40:20;;;;;;;29.05;14.35;;;1.10;72.40;;;;;;2370121;53;20901;-67
2022/01/13 09:42:46;;;;;;;24.27;13.60;;;1.10;72.50;;;;;;2369316;53;21825;-70
2022/01/13 09:45:13;;;;;;;27.27;14.43;;;1.20;72.60;;;;;;2370397;54;21132;-69
2022/01/13 09:47:40;;;;;;;25.20;13.25;;;1.30;72.70;;;;;;2369704;54;20997;-69
2022/01/13 09:50:10;;;;;;;27.65;14.68;;;1.40;72.90;;;;;;2369644;54;20910;-71
2022/01/13 09:52:37;;;;;;;24.25;13.52;;;1.40;72.90;;;;;;2442346;52;20925;-67
2022/01/13 09:55:07;;;;;;;24.70;12.50;;;1.50;73.10;;;;;;2575148;52;21374;-69
2022/01/13 09:57:34;;;;;;;26.77;12.15;;;1.60;73.10;;;;;;2369616;53;21362;-71
2022/01/13 10:00:00;;;;;;;27.95;13.73;;;1.70;73.10;;;;;;2455866;52;20989;-69
2022/01/13 10:02:28;;;;;;;24.75;12.70;;;1.70;73.10;;;;;;2371549;53;21751;-67
2022/01/13 10:04:55;;;;;;;23.50;12.35;;;1.80;73.10;;;;;;2371093;54;21548;-69
2022/01/13 10:07:44;;;;;;;25.17;13.88;;;1.90;73.20;;;;;;2372556;54;21513;-68
2022/01/13 10:10:20;;;;;;;26.02;13.62;;;2.00;73.70;;;;;;2371262;53;20905;-69
2022/01/13 10:12:48;;;;;;;23.90;13.43;;;2.20;75.60;;;;;;2371006;53;20925;-67
2022/01/13 10:18:03;;;;;;;22.65;12.88;;;2.80;79.30;;;;;;2343970;53;21023;-71
2022/01/13 10:20:31;;;;;;;17.20;10.18;;;3.30;80.30;;;;;;2370865;53;20909;-70
2022/01/13 10:23:09;;;;;;;19.77;11.07;;;3.70;80.90;;;;;;2514544;52;20945;-69
2022/01/13 10:25:40;;;;;;;18.15;11.05;;;4.10;81.00;;;;;;2527057;52;20925;-69
2022/01/13 10:28:39;;;;;;;20.05;12.57;;;4.50;80.70;;;;;;2340855;53;20940;-70
2022/01/13 10:31:05;;;;;;;17.65;11.00;;;4.90;78.70;;;;;;2365659;53;21008;-69
2022/01/13 10:33:34;;;;;;;17.67;11.20;;;5.10;78.50;;;;;;2349349;53;20905;-70
2022/01/13 10:36:13;;;;;;;20.50;13.32;;;5.20;77.10;;;;;;2352874;53;20984;-70
2022/01/13 10:38:55;;;;;;;21.37;12.13;;;5.40;75.40;;;;;;2359758;53;20981;-66
2022/01/13 10:42:15;;;;;;;16.80;10.68;;;5.40;74.30;;;;;;2363547;53;20901;-67
2022/01/13 10:44:41;;;;;;;17.30;10.07;;;5.50;73.90;;;;;;2367388;53;20914;-67
2022/01/13 10:47:07;;;;;;;15.60;10.35;;;5.50;73.40;;;;;;2453369;52;21080;-68
2022/01/13 10:49:38;;;;;;;15.57;9.68;;;5.50;73.00;;;;;;2367133;53;20928;-69
2022/01/13 10:52:24;;;;;;;17.67;10.10;;;5.40;72.50;;;;;;2374689;53;20942;-68
2022/01/13 10:55:05;;;;;;;17.48;10.95;;;5.40;72.90;;;;;;2366726;53;20909;-70
2022/01/13 10:57:32;;;;;;;17.87;11.40;;;5.40;75.40;;;;;;2373294;54;20940;-70
2022/01/13 10:59:58;;;;;;;18.52;11.88;;;5.60;77.60;;;;;;2369826;54;20946;-69
2022/01/13 11:02:27;;;;;;;19.30;12.43;;;5.80;79.10;;;;;;2589530;52;20921;-67
2022/01/13 11:04:54;;;;;;;19.73;12.35;;;6.10;80.20;;;;;;2369355;53;20956;-69
2022/01/13 11:07:23;;;;;;;18.80;12.77;;;6.40;81.10;;;;;;2369999;54;21614;-70
2022/01/13 11:09:57;;;;;;;18.00;13.15;;;6.80;81.70;;;;;;2369419;53;21354;-66
2022/01/13 11:12:38;;;;;;;20.15;13.07;;;7.10;81.50;;;;;;2369674;53;20909;-70
2022/01/13 11:15:07;;;;;;;16.75;12.40;;;7.50;80.80;;;;;;2347141;54;21494;-68
2022/01/13 11:17:36;;;;;;;17.33;12.20;;;7.70;80.80;;;;;;2484520;53;20949;-70
2022/01/13 11:20:02;;;;;;;16.92;11.65;;;8.00;80.10;;;;;;2357289;53;20945;-66
2022/01/13 11:22:29;;;;;;;15.90;11.43;;;8.20;79.30;;;;;;2453899;52;20946;-67
2022/01/13 11:24:57;;;;;;;16.25;12.10;;;8.40;78.40;;;;;;2363277;53;21918;-69
2022/01/13 11:27:23;;;;;;;15.55;10.85;;;8.60;77.30;;;;;;2357189;53;20930;-71
2022/01/13 11:29:49;;;;;;;15.25;10.38;;;8.70;76.00;;;;;;2370825;54;20925;-68
2022/01/13 11:32:17;;;;;;;14.95;10.25;;;8.70;74.50;;;;;;2370399;54;22071;-67
2022/01/13 11:34:45;;;;;;;14.85;9.20;;;8.70;73.50;;;;;;2370586;54;20922;-66
2022/01/13 11:37:11;;;;;;;16.90;10.52;;;8.70;72.90;;;;;;2371074;53;20917;-69
2022/01/13 11:39:41;;;;;;;16.37;11.23;;;8.60;72.40;;;;;;2369376;53;20957;-70
2022/01/13 11:42:09;;;;;;;17.23;11.02;;;8.50;70.90;;;;;;2351802;53;20984;-68
2022/01/13 11:44:36;;;;;;;19.17;12.70;;;8.40;69.90;;;;;;2374115;54;20934;-69
2022/01/13 11:47:08;;;;;;;17.65;11.77;;;8.30;69.70;;;;;;2371079;54;21714;-68
2022/01/13 11:52:32;;;;;;;16.58;11.35;;;8.00;69.80;;;;;;2342895;53;21047;-68
2022/01/13 11:55:18;;;;;;;17.37;11.63;;;7.90;69.80;;;;;;2342202;53;20948;-70
2022/01/13 11:58:19;;;;;;;17.45;11.30;;;7.80;69.90;;;;;;2334366;54;20988;-67
2022/01/13 12:00:46;;;;;;;18.58;12.18;;;7.60;70.70;;;;;;2338195;54;20976;-69
2022/01/13 12:06:48;;;;;;;18.52;12.77;;;7.60;71.30;;;;;;2385395;53;21040;-68
2022/01/13 12:11:09;;;;;;;17.42;11.43;;;7.60;70.00;;;;;;2343137;53;20924;-68
2022/01/13 12:13:40;;;;;;;17.17;11.82;;;7.70;70.90;;;;;;2340101;53;21402;-67
2022/01/13 12:16:08;;;;;;;17.70;11.77;;;7.60;71.80;;;;;;2367942;53;20946;-69
2022/01/13 12:21:33;;;;;;;18.20;12.37;;;7.70;71.80;;;;;;2509089;52;22068;-67
2022/01/13 12:24:00;;;;;;;18.85;11.63;;;7.70;70.40;;;;;;2370527;52;20946;-69
2022/01/13 12:28:30;;;;;;;17.87;12.45;;;7.80;72.50;;;;;;2366492;54;20942;-66
2022/01/13 12:30:57;;;;;;;21.48;12.88;;;7.80;71.60;;;;;;2366515;54;21069;-69
2022/01/13 12:33:32;;;;;;;24.45;14.90;;;7.80;72.40;;;;;;2366025;54;20965;-68
2022/01/13 12:35:59;;;;;;;24.37;16.30;;;7.90;71.60;;;;;;2366332;54;21005;-70
2022/01/13 12:38:26;;;;;;;22.77;15.10;;;7.90;71.40;;;;;;2346561;54;21624;-67
2022/01/13 12:41:03;;;;;;;24.83;15.43;;;7.90;71.20;;;;;;2363372;54;20929;-69
2022/01/13 12:47:03;;;;;;;23.33;14.13;;;7.90;71.40;;;;;;2374622;52;21759;-68
2022/01/13 12:49:46;;;;;;;21.17;13.57;;;7.90;71.80;;;;;;2366026;54;20902;-67
2022/01/13 12:52:18;;;;;;;22.83;14.20;;;8.00;71.60;;;;;;2366406;54;20981;-69
2022/01/13 12:54:45;;;;;;;22.92;15.15;;;8.00;71.50;;;;;;2367864;54;21240;-67
2022/01/13 12:57:12;;;;;;;24.42;15.27;;;8.10;71.90;;;;;;2351381;54;20995;-70
2022/01/13 12:59:38;;;;;;;24.63;15.00;;;8.10;71.80;;;;;;2359348;53;20973;-71
2022/01/13 13:02:05;;;;;;;22.77;14.87;;;8.20;71.70;;;;;;2365831;54;21008;-69
2022/01/13 13:04:35;;;;;;;21.08;13.45;;;8.30;71.50;;;;;;2352754;53;20917;-67
2022/01/13 13:07:05;;;;;;;23.83;15.00;;;8.30;71.10;;;;;;2352760;54;21009;-69
2022/01/13 13:09:31;;;;;;;24.12;14.45;;;8.30;71.00;;;;;;2358091;54;20937;-70
2022/01/13 13:12:01;;;;;;;25.75;15.93;;;8.40;71.10;;;;;;2359674;54;20953;-70
2022/01/13 13:15:39;;;;;;;23.80;13.80;;;8.50;71.10;;;;;;2350657;54;21001;-67
2022/01/13 13:18:06;;;;;;;22.83;14.18;;;8.50;70.80;;;;;;2500479;52;21008;-67
2022/01/13 13:20:35;;;;;;;26.45;16.35;;;8.60;70.80;;;;;;2345047;54;20954;-69
2022/01/13 13:23:04;;;;;;;29.77;17.83;;;8.60;70.00;;;;;;2366381;54;20966;-67
2022/01/13 13:25:44;;;;;;;26.90;16.70;;;8.70;69.40;;;;;;2365599;54;21532;-67
2022/01/13 13:28:23;;;;;;;26.30;15.85;;;8.70;68.80;;;;;;2343088;54;21471;-66
2022/01/13 13:30:50;;;;;;;26.08;16.17;;;8.60;68.40;;;;;;2367744;54;20938;-68
2022/01/13 13:33:36;;;;;;;26.08;14.82;;;8.60;68.50;;;;;;2343547;54;20926;-68
2022/01/13 13:36:11;;;;;;;25.90;15.50;;;8.50;67.90;;;;;;2435647;52;20990;-68
2022/01/13 13:39:57;;;;;;;26.27;15.38;;;8.50;67.90;;;;;;2617676;52;22019;-70
2022/01/13 13:42:25;;;;;;;25.42;14.40;;;8.40;67.50;;;;;;2366225;54;20990;-66
2022/01/13 13:44:51;;;;;;;26.58;15.55;;;8.40;67.90;;;;;;2365785;54;20971;-69
2022/01/13 13:47:19;;;;;;;25.88;14.90;;;8.30;67.80;;;;;;2366358;54;20922;-67
2022/01/13 13:49:51;;;;;;;29.10;15.98;;;8.20;67.80;;;;;;2498132;52;20933;-69
2022/01/13 13:52:18;;;;;;;28.73;15.52;;;8.20;67.20;;;;;;2366714;54;20982;-68